Time;durP1;ratioP1;P1;durP2;ratioP2;P2;SDS_P1;SDS_P2;PMS_P1;PMS_P2;Temp;Humidity;BMP_temperature;BMP_pressure;BME280_temperature;BME280_humidity;BME280_pressure;Samples;Min_cycle;Max_cycle;Signal;HPM_P1;HPM_P2
2021/03/03 00:00:56;;;;;;;38.63;19.90;;;2.00;99.90;;;;;;5027791;28;20044;-70
2021/03/03 00:03:40;;;;;;;34.17;17.17;;;2.10;99.90;;;;;;5020232;28;20037;-70
2021/03/03 00:06:24;;;;;;;38.05;19.17;;;2.10;99.90;;;;;;5023262;28;20048;-70
2021/03/03 00:09:09;;;;;;;32.72;16.65;;;2.10;99.90;;;;;;5019880;28;20052;-70
2021/03/03 00:11:53;;;;;;;32.33;16.63;;;2.10;99.90;;;;;;5020037;28;20052;-70
2021/03/03 00:14:37;;;;;;;35.58;17.05;;;2.10;99.90;;;;;;5015652;28;20560;-71
2021/03/03 00:17:21;;;;;;;29.98;16.58;;;2.20;99.90;;;;;;5020140;28;20039;-70
2021/03/03 00:20:08;;;;;;;28.88;16.23;;;2.10;99.90;;;;;;5014496;28;20036;-69
2021/03/03 00:22:52;;;;;;;35.33;18.15;;;2.10;99.90;;;;;;5027410;28;20160;-69
2021/03/03 00:25:36;;;;;;;34.50;17.42;;;2.10;99.90;;;;;;5014923;28;20048;-69
2021/03/03 00:28:20;;;;;;;44.28;21.02;;;2.10;99.90;;;;;;5020023;28;20137;-71
2021/03/03 00:31:04;;;;;;;35.83;17.60;;;2.10;99.90;;;;;;5024300;28;20067;-71
2021/03/03 00:33:49;;;;;;;32.58;16.52;;;2.10;99.90;;;;;;5023579;28;20049;-72
2021/03/03 00:36:33;;;;;;;34.92;16.63;;;2.20;99.90;;;;;;5024906;28;20091;-71
2021/03/03 00:39:17;;;;;;;34.47;15.15;;;2.10;99.90;;;;;;5020070;28;20041;-72
2021/03/03 00:42:01;;;;;;;31.88;14.77;;;2.10;99.90;;;;;;5020284;28;20371;-71
2021/03/03 00:44:46;;;;;;;30.70;15.63;;;2.00;99.90;;;;;;5025360;28;20060;-71
2021/03/03 00:47:30;;;;;;;35.28;17.67;;;2.10;99.90;;;;;;5021552;28;20057;-72
2021/03/03 00:50:14;;;;;;;32.83;16.45;;;2.00;99.90;;;;;;5014991;28;20084;-70
2021/03/03 00:52:58;;;;;;;36.13;18.48;;;2.00;99.90;;;;;;5024530;28;20051;-71
2021/03/03 00:55:48;;;;;;;33.20;15.63;;;2.00;99.90;;;;;;5015668;28;20347;-71
2021/03/03 00:58:32;;;;;;;36.10;16.33;;;2.10;99.90;;;;;;5019916;28;20501;-71
2021/03/03 01:01:16;;;;;;;30.33;15.68;;;2.10;99.90;;;;;;5018462;28;20099;-71
2021/03/03 01:04:00;;;;;;;37.75;17.05;;;2.10;99.90;;;;;;5016737;28;20064;-71
2021/03/03 01:06:44;;;;;;;33.92;16.35;;;2.20;99.90;;;;;;5024235;28;20128;-71
2021/03/03 01:09:28;;;;;;;30.00;15.30;;;2.20;99.90;;;;;;5019075;28;20060;-71
2021/03/03 01:12:12;;;;;;;33.83;16.00;;;2.20;99.90;;;;;;5016250;28;20049;-71
2021/03/03 01:14:57;;;;;;;33.15;17.58;;;2.10;99.90;;;;;;5028089;28;20517;-71
2021/03/03 01:17:41;;;;;;;38.42;18.83;;;2.10;99.90;;;;;;5026342;28;20160;-71
2021/03/03 01:20:28;;;;;;;33.83;16.55;;;2.00;99.90;;;;;;5025741;28;20041;-71
2021/03/03 01:23:12;;;;;;;35.90;17.20;;;2.00;99.90;;;;;;5019878;28;20041;-72
2021/03/03 01:25:56;;;;;;;37.72;17.17;;;2.00;99.90;;;;;;5016116;28;20044;-71
2021/03/03 01:28:40;;;;;;;32.22;15.90;;;1.90;99.90;;;;;;5012623;28;20045;-71
2021/03/03 01:31:24;;;;;;;35.38;15.73;;;2.00;99.90;;;;;;5025468;28;20052;-71
2021/03/03 01:34:08;;;;;;;34.63;16.10;;;2.00;99.90;;;;;;5019190;28;20096;-70
2021/03/03 01:36:53;;;;;;;35.38;16.77;;;2.00;99.90;;;;;;5016490;28;20060;-71
2021/03/03 01:39:37;;;;;;;33.17;16.23;;;2.00;99.90;;;;;;5016377;28;20103;-71
2021/03/03 01:42:21;;;;;;;37.88;16.88;;;2.00;99.90;;;;;;5017055;28;20052;-71
2021/03/03 01:45:05;;;;;;;42.33;19.02;;;2.00;99.90;;;;;;5024094;28;20071;-71
2021/03/03 01:47:50;;;;;;;34.95;15.93;;;1.80;99.90;;;;;;5023416;28;20203;-71
2021/03/03 01:50:36;;;;;;;31.55;16.63;;;1.80;99.90;;;;;;5023631;28;20145;-71
2021/03/03 01:53:20;;;;;;;33.92;17.08;;;1.80;99.90;;;;;;5016220;28;20048;-71
2021/03/03 01:56:05;;;;;;;36.72;17.58;;;1.90;99.90;;;;;;5012409;28;20065;-71
2021/03/03 01:58:49;;;;;;;37.58;18.90;;;1.90;99.90;;;;;;5025897;28;20124;-71
2021/03/03 02:01:33;;;;;;;41.38;21.00;;;1.90;99.90;;;;;;5024979;28;20513;-71
2021/03/03 02:04:18;;;;;;;31.30;16.50;;;1.80;99.90;;;;;;5018445;28;20045;-71
2021/03/03 02:07:18;;;;;;;34.40;17.67;;;1.70;99.90;;;;;;5017428;28;20549;-71
2021/03/03 02:10:25;;;;;;;37.08;19.88;;;1.70;99.90;;;;;;5024666;28;20073;-71
2021/03/03 02:13:18;;;;;;;40.65;19.45;;;1.70;99.90;;;;;;5022128;28;20098;-71
2021/03/03 02:16:05;;;;;;;31.75;15.95;;;1.80;99.90;;;;;;5015921;28;20086;-71
2021/03/03 02:18:50;;;;;;;43.90;20.63;;;1.80;99.90;;;;;;5027341;28;20060;-71
2021/03/03 02:21:43;;;;;;;44.70;18.75;;;1.90;99.90;;;;;;5021543;28;20141;-71
2021/03/03 02:24:34;;;;;;;36.15;17.63;;;1.90;99.90;;;;;;5013268;28;20048;-71
2021/03/03 02:27:22;;;;;;;39.45;17.55;;;1.90;99.90;;;;;;5033298;28;20060;-71
2021/03/03 02:30:06;;;;;;;29.85;16.25;;;1.90;99.90;;;;;;5019242;28;20045;-71
2021/03/03 02:32:52;;;;;;;31.20;16.83;;;1.90;99.90;;;;;;5012431;28;20049;-71
2021/03/03 02:35:37;;;;;;;34.38;18.67;;;1.90;99.90;;;;;;5013374;28;20049;-72
2021/03/03 02:38:21;;;;;;;34.45;17.77;;;1.90;99.90;;;;;;5012487;28;20076;-71
2021/03/03 02:41:08;;;;;;;35.83;18.10;;;1.90;99.90;;;;;;5011302;28;20513;-72
2021/03/03 02:43:55;;;;;;;31.58;17.08;;;1.80;99.90;;;;;;5018223;28;20465;-71
2021/03/03 02:46:43;;;;;;;30.95;15.60;;;1.90;99.90;;;;;;5022906;28;20044;-72
2021/03/03 02:49:28;;;;;;;32.65;15.98;;;1.90;99.90;;;;;;5025766;28;20049;-71
2021/03/03 02:52:12;;;;;;;33.35;16.27;;;1.90;99.90;;;;;;5014749;28;20099;-72
2021/03/03 02:54:56;;;;;;;33.92;17.83;;;1.90;99.90;;;;;;5013480;28;20450;-71
2021/03/03 02:57:42;;;;;;;36.10;18.13;;;1.90;99.90;;;;;;5017350;28;20458;-71
2021/03/03 03:00:38;;;;;;;39.30;19.70;;;1.80;99.90;;;;;;5021230;28;20354;-72
2021/03/03 03:03:27;;;;;;;34.78;18.80;;;1.70;99.90;;;;;;5020533;28;20414;-71
2021/03/03 03:06:23;;;;;;;28.95;15.88;;;1.70;99.90;;;;;;5015917;28;20061;-71
2021/03/03 03:09:11;;;;;;;31.77;15.10;;;1.80;99.90;;;;;;5016268;28;20529;-71
2021/03/03 03:11:56;;;;;;;33.30;18.17;;;1.90;99.90;;;;;;5017726;28;20076;-71
2021/03/03 03:14:46;;;;;;;33.13;15.40;;;1.90;99.90;;;;;;5013724;28;20052;-71
2021/03/03 03:17:32;;;;;;;30.85;15.05;;;1.80;99.90;;;;;;5012728;28;20467;-71
2021/03/03 03:20:17;;;;;;;30.63;15.73;;;1.80;99.90;;;;;;5019942;28;20578;-71
2021/03/03 03:23:06;;;;;;;27.67;14.75;;;1.80;99.90;;;;;;5021944;28;20056;-71
2021/03/03 03:25:53;;;;;;;28.42;14.57;;;1.70;99.90;;;;;;5014807;28;20053;-72
2021/03/03 03:28:38;;;;;;;26.55;13.85;;;1.80;99.90;;;;;;5012840;28;20048;-72
2021/03/03 03:31:23;;;;;;;25.95;13.00;;;1.80;99.90;;;;;;5023162;28;20076;-71
2021/03/03 03:34:10;;;;;;;34.00;14.73;;;1.90;99.90;;;;;;5016286;28;20048;-71
2021/03/03 03:36:54;;;;;;;27.52;14.90;;;1.90;99.90;;;;;;5025641;28;20441;-71
2021/03/03 03:39:39;;;;;;;25.63;13.18;;;1.90;99.90;;;;;;5015582;28;20053;-72
2021/03/03 03:42:27;;;;;;;25.15;12.35;;;1.90;99.90;;;;;;5018472;28;20112;-71
2021/03/03 03:45:12;;;;;;;31.00;14.93;;;1.90;99.90;;;;;;5022569;28;20095;-71
2021/03/03 03:47:57;;;;;;;27.17;14.98;;;1.90;99.90;;;;;;5022911;28;20060;-71
2021/03/03 03:50:42;;;;;;;28.00;14.40;;;1.90;99.90;;;;;;5027378;28;20227;-71
2021/03/03 03:53:30;;;;;;;26.52;14.05;;;1.80;99.90;;;;;;5021964;28;20056;-71
2021/03/03 03:56:14;;;;;;;28.38;15.98;;;1.80;99.90;;;;;;5026204;28;20080;-71
2021/03/03 03:58:59;;;;;;;29.48;15.40;;;1.60;99.90;;;;;;5029551;28;20087;-71
2021/03/03 04:01:43;;;;;;;33.88;16.90;;;1.60;99.90;;;;;;5021014;28;20099;-71
2021/03/03 04:04:27;;;;;;;34.28;16.52;;;1.60;99.90;;;;;;5024523;28;20064;-71
2021/03/03 04:07:12;;;;;;;31.48;16.77;;;1.50;99.90;;;;;;5020643;28;20052;-71
2021/03/03 04:09:56;;;;;;;29.02;14.63;;;1.60;99.90;;;;;;5027338;28;20141;-71
2021/03/03 04:12:40;;;;;;;28.15;14.52;;;1.70;99.90;;;;;;5021287;28;20052;-71
2021/03/03 04:15:24;;;;;;;28.25;15.90;;;1.70;99.90;;;;;;5019932;28;20083;-71
2021/03/03 04:18:10;;;;;;;28.65;14.98;;;1.60;99.90;;;;;;5019205;28;20115;-71
2021/03/03 04:20:55;;;;;;;27.98;13.65;;;1.50;99.90;;;;;;5025574;28;20144;-71
2021/03/03 04:23:39;;;;;;;30.60;13.80;;;1.50;99.90;;;;;;5018903;28;20096;-71
2021/03/03 04:26:23;;;;;;;29.45;14.10;;;1.40;99.90;;;;;;5016701;28;20135;-71
2021/03/03 04:29:07;;;;;;;26.63;14.20;;;1.30;99.90;;;;;;5028357;28;20091;-71
2021/03/03 04:31:51;;;;;;;28.05;13.55;;;1.40;99.90;;;;;;5019337;28;20091;-71
2021/03/03 04:34:36;;;;;;;30.88;14.63;;;1.50;99.90;;;;;;5024668;28;20096;-71
2021/03/03 04:37:20;;;;;;;29.00;14.48;;;1.40;99.90;;;;;;5028034;28;20047;-72
2021/03/03 04:40:09;;;;;;;24.73;13.38;;;1.40;99.90;;;;;;5014331;28;20171;-71
2021/03/03 04:42:54;;;;;;;25.88;13.25;;;1.40;99.90;;;;;;5025803;28;20087;-71
2021/03/03 04:45:38;;;;;;;30.75;13.80;;;1.40;99.90;;;;;;5021281;28;20064;-71
2021/03/03 04:48:22;;;;;;;28.13;14.40;;;1.40;99.90;;;;;;5023375;28;20080;-71
2021/03/03 04:51:06;;;;;;;28.35;13.25;;;1.50;99.90;;;;;;5019797;28;20418;-71
2021/03/03 04:53:50;;;;;;;25.58;12.85;;;1.50;99.90;;;;;;5027351;28;20044;-71
2021/03/03 04:56:34;;;;;;;26.65;12.60;;;1.70;99.90;;;;;;5014959;28;20294;-71
2021/03/03 04:59:18;;;;;;;23.45;12.00;;;1.70;99.90;;;;;;5028723;28;20049;-71
2021/03/03 05:02:02;;;;;;;18.73;10.30;;;1.80;99.90;;;;;;5022486;28;20099;-71
2021/03/03 05:04:47;;;;;;;23.75;11.93;;;1.90;99.90;;;;;;5014091;28;20466;-71
2021/03/03 05:07:31;;;;;;;24.52;12.05;;;1.90;99.90;;;;;;5017063;28;20112;-72
2021/03/03 05:10:15;;;;;;;25.33;12.98;;;2.00;99.90;;;;;;5025692;28;20548;-71
2021/03/03 05:12:59;;;;;;;24.00;11.95;;;2.00;99.90;;;;;;5013214;28;20351;-71
2021/03/03 05:15:43;;;;;;;23.35;12.48;;;2.00;99.90;;;;;;5026437;28;20056;-71
2021/03/03 05:18:28;;;;;;;22.40;12.73;;;2.00;99.90;;;;;;5013813;28;20044;-71
2021/03/03 05:21:12;;;;;;;25.30;13.75;;;1.80;99.90;;;;;;5015904;28;20125;-71
2021/03/03 05:23:57;;;;;;;25.92;13.98;;;1.70;99.90;;;;;;5018684;28;20045;-72
2021/03/03 05:26:42;;;;;;;23.42;13.55;;;1.70;99.90;;;;;;5013849;28;20513;-71
2021/03/03 05:29:27;;;;;;;23.80;13.02;;;1.70;99.90;;;;;;5016804;28;20045;-72
2021/03/03 05:32:11;;;;;;;29.17;13.35;;;1.80;99.90;;;;;;5017040;28;20091;-71
2021/03/03 05:34:55;;;;;;;28.83;13.40;;;1.70;99.90;;;;;;5021049;28;20067;-71
2021/03/03 05:37:39;;;;;;;22.77;11.95;;;1.70;99.90;;;;;;5029469;28;20045;-71
2021/03/03 05:40:24;;;;;;;30.65;15.65;;;1.70;99.90;;;;;;5020815;28;20047;-71
2021/03/03 05:43:08;;;;;;;31.88;15.32;;;1.70;99.90;;;;;;5023628;28;20048;-71
2021/03/03 05:45:52;;;;;;;36.40;15.32;;;1.70;99.90;;;;;;5022865;28;20091;-71
2021/03/03 05:48:52;;;;;;;31.70;14.98;;;1.70;99.90;;;;;;5015629;28;20103;-71
2021/03/03 05:51:37;;;;;;;31.80;15.13;;;1.70;99.90;;;;;;5010884;28;20103;-71
2021/03/03 05:54:21;;;;;;;28.40;13.50;;;1.80;99.90;;;;;;5010983;28;20048;-71
2021/03/03 05:57:06;;;;;;;29.35;14.05;;;1.80;99.90;;;;;;5020459;28;20516;-71
2021/03/03 05:59:51;;;;;;;28.65;15.05;;;1.80;99.90;;;;;;5025614;28;20087;-71
2021/03/03 06:02:37;;;;;;;30.95;14.93;;;1.90;99.90;;;;;;5018235;28;20449;-71
2021/03/03 06:05:22;;;;;;;29.33;13.60;;;1.90;99.90;;;;;;5021730;28;20418;-71
2021/03/03 06:08:06;;;;;;;25.13;13.88;;;1.80;99.90;;;;;;5028916;28;20114;-71
2021/03/03 06:10:51;;;;;;;26.60;14.98;;;1.80;99.90;;;;;;5029009;28;20446;-71
2021/03/03 06:13:35;;;;;;;31.98;14.75;;;1.80;99.90;;;;;;5026127;28;20052;-71
2021/03/03 06:16:20;;;;;;;24.55;13.05;;;1.90;99.90;;;;;;5026386;28;20056;-71
2021/03/03 06:19:05;;;;;;;29.45;13.88;;;1.90;99.90;;;;;;5026068;28;20068;-71
2021/03/03 06:21:49;;;;;;;26.75;13.27;;;1.90;99.90;;;;;;5015328;28;20096;-71
2021/03/03 06:24:34;;;;;;;21.90;12.75;;;1.90;99.90;;;;;;5028223;28;20414;-71
2021/03/03 06:27:22;;;;;;;24.52;13.43;;;1.90;99.90;;;;;;5025258;28;20557;-71
2021/03/03 06:30:11;;;;;;;26.63;12.75;;;1.90;99.90;;;;;;5022922;28;20490;-71
2021/03/03 06:32:58;;;;;;;33.40;15.10;;;2.00;99.90;;;;;;5028554;28;20442;-71
2021/03/03 06:35:46;;;;;;;27.50;14.68;;;2.00;99.90;;;;;;5020655;28;20048;-71
2021/03/03 06:38:31;;;;;;;28.92;16.42;;;2.10;99.90;;;;;;5020785;28;20125;-71
2021/03/03 06:41:16;;;;;;;38.95;17.83;;;2.20;99.90;;;;;;5019171;28;20087;-72
2021/03/03 06:44:00;;;;;;;33.13;16.52;;;2.30;99.90;;;;;;5012293;28;20104;-72
2021/03/03 06:47:07;;;;;;;31.48;15.68;;;2.30;99.90;;;;;;5008886;28;20517;-71
2021/03/03 06:49:53;;;;;;;29.58;15.68;;;2.40;99.90;;;;;;5023430;28;20139;-71
2021/03/03 06:52:39;;;;;;;30.23;15.98;;;2.50;99.90;;;;;;5020971;28;20045;-71
2021/03/03 06:55:23;;;;;;;37.10;17.13;;;2.40;99.90;;;;;;5020636;28;20068;-71
2021/03/03 06:58:30;;;;;;;32.80;17.15;;;2.50;99.90;;;;;;5023991;28;20609;-71
2021/03/03 07:01:32;;;;;;;35.97;18.20;;;2.60;99.90;;;;;;5023001;28;20049;-71
2021/03/03 07:04:17;;;;;;;29.77;16.17;;;2.60;99.90;;;;;;5022721;28;20551;-71
2021/03/03 07:07:17;;;;;;;36.83;17.00;;;2.60;99.90;;;;;;5026589;28;20442;-71
2021/03/03 07:10:01;;;;;;;29.90;15.93;;;2.70;99.90;;;;;;5010474;28;20103;-70
2021/03/03 07:12:49;;;;;;;31.00;14.93;;;2.70;99.90;;;;;;5022393;28;20091;-71
2021/03/03 07:15:33;;;;;;;28.98;13.90;;;2.80;99.90;;;;;;5013903;28;20080;-71
2021/03/03 07:18:37;;;;;;;33.33;16.25;;;2.90;99.90;;;;;;5015278;28;20498;-71
2021/03/03 07:21:37;;;;;;;34.47;17.15;;;3.00;99.90;;;;;;5021541;28;20079;-71
2021/03/03 07:24:23;;;;;;;36.50;16.25;;;3.10;99.90;;;;;;5020555;28;20414;-71
2021/03/03 07:27:08;;;;;;;33.25;16.08;;;3.20;99.90;;;;;;5023277;28;20064;-71
2021/03/03 07:29:58;;;;;;;30.77;15.95;;;3.30;99.90;;;;;;5017298;28;20083;-71
2021/03/03 07:32:43;;;;;;;26.95;14.55;;;3.50;99.90;;;;;;5014281;28;20152;-71
2021/03/03 07:35:28;;;;;;;32.22;16.27;;;3.70;99.90;;;;;;5029574;28;20048;-71
2021/03/03 07:38:15;;;;;;;28.83;15.65;;;3.80;99.90;;;;;;5019859;28;20147;-71
2021/03/03 07:41:08;;;;;;;31.48;16.30;;;4.00;99.90;;;;;;5017303;28;20514;-71
2021/03/03 07:43:54;;;;;;;30.23;17.77;;;4.10;99.90;;;;;;5023966;28;20451;-71
2021/03/03 07:46:40;;;;;;;34.55;17.60;;;4.10;99.90;;;;;;5023226;28;20482;-71
2021/03/03 07:49:27;;;;;;;34.72;16.60;;;4.20;99.90;;;;;;5025231;28;20048;-71
2021/03/03 07:52:13;;;;;;;33.63;17.85;;;4.30;99.90;;;;;;5020483;28;20616;-71
2021/03/03 07:54:59;;;;;;;33.42;17.20;;;4.40;99.90;;;;;;5028392;28;20048;-71
2021/03/03 07:57:47;;;;;;;36.55;18.30;;;4.50;99.90;;;;;;5031827;28;20087;-72
2021/03/03 08:00:34;;;;;;;38.42;19.63;;;4.50;99.90;;;;;;5020371;28;20484;-71
2021/03/03 08:03:56;;;;;;;36.53;17.85;;;4.60;99.90;;;;;;5023218;28;21596;-71
2021/03/03 08:06:41;;;;;;;28.05;16.85;;;4.70;99.90;;;;;;5024146;28;20064;-71
2021/03/03 08:09:25;;;;;;;32.90;18.25;;;4.90;99.90;;;;;;5020111;28;20060;-71
2021/03/03 08:12:09;;;;;;;37.90;18.60;;;5.10;99.90;;;;;;5017705;28;20137;-71
2021/03/03 08:14:53;;;;;;;35.05;17.80;;;5.20;99.90;;;;;;5020914;28;20128;-71
2021/03/03 08:17:40;;;;;;;38.40;18.38;;;5.40;99.90;;;;;;5031329;28;20044;-71
2021/03/03 08:20:31;;;;;;;36.25;18.83;;;5.60;99.90;;;;;;5021324;28;20049;-72
2021/03/03 08:23:33;;;;;;;34.88;16.13;;;5.80;99.90;;;;;;5022284;28;20071;-71
2021/03/03 08:26:18;;;;;;;31.97;17.97;;;6.00;99.90;;;;;;5012828;28;20125;-69
2021/03/03 08:29:12;;;;;;;31.95;16.90;;;6.10;99.90;;;;;;5024078;28;20522;-71
2021/03/03 08:32:23;;;;;;;36.10;18.77;;;6.30;99.90;;;;;;5021475;28;20060;-70
2021/03/03 08:35:09;;;;;;;36.10;18.05;;;6.40;99.90;;;;;;5023504;28;20181;-70
2021/03/03 08:38:14;;;;;;;33.38;16.50;;;6.50;99.90;;;;;;5027650;28;20052;-71
2021/03/03 08:41:17;;;;;;;32.95;16.23;;;6.70;99.90;;;;;;5013207;28;20052;-71
2021/03/03 08:44:16;;;;;;;30.48;14.95;;;7.00;99.90;;;;;;5021926;28;20099;-72
2021/03/03 08:47:00;;;;;;;31.48;15.02;;;7.20;99.90;;;;;;5024167;28;20171;-71
2021/03/03 08:49:44;;;;;;;37.17;15.32;;;7.30;99.90;;;;;;5021886;28;20045;-71
2021/03/03 08:52:28;;;;;;;28.77;15.55;;;7.40;99.90;;;;;;5016974;28;20180;-71
2021/03/03 08:55:29;;;;;;;28.35;16.15;;;7.60;99.90;;;;;;5019621;28;20092;-71
2021/03/03 08:58:32;;;;;;;30.23;17.58;;;7.80;99.90;;;;;;5011970;28;20041;-69
2021/03/03 09:01:16;;;;;;;32.38;17.65;;;8.20;99.90;;;;;;5020607;28;20040;-72
2021/03/03 09:04:02;;;;;;;34.95;18.48;;;8.40;99.90;;;;;;5029484;28;20045;-70
2021/03/03 09:06:51;;;;;;;29.52;14.90;;;8.80;99.90;;;;;;5016468;28;20124;-69
2021/03/03 09:09:41;;;;;;;28.08;15.52;;;9.20;99.90;;;;;;5012703;28;20454;-70
2021/03/03 09:12:31;;;;;;;31.60;14.88;;;9.60;99.90;;;;;;5026183;28;20052;-70
2021/03/03 09:15:16;;;;;;;29.75;14.48;;;10.00;99.90;;;;;;5012648;28;20517;-70
2021/03/03 09:18:02;;;;;;;28.20;12.40;;;10.30;99.90;;;;;;5011935;28;20129;-71
2021/03/03 09:20:46;;;;;;;26.55;13.27;;;10.50;99.90;;;;;;5024613;28;20092;-69
2021/03/03 09:23:30;;;;;;;28.35;13.00;;;10.60;99.90;;;;;;5011284;28;20141;-70
2021/03/03 09:26:21;;;;;;;26.23;12.80;;;10.50;99.90;;;;;;5011931;28;20049;-70
2021/03/03 09:29:06;;;;;;;25.85;12.70;;;10.60;99.90;;;;;;5015394;28;20088;-69
2021/03/03 09:31:51;;;;;;;24.90;11.55;;;10.80;99.90;;;;;;5010433;28;20048;-70
2021/03/03 09:34:42;;;;;;;24.73;11.55;;;10.80;99.90;;;;;;5012845;28;20172;-70
2021/03/03 09:37:35;;;;;;;23.30;11.70;;;11.00;99.90;;;;;;5012217;28;20041;-70
2021/03/03 09:40:19;;;;;;;23.55;10.35;;;11.10;99.90;;;;;;5020947;28;20072;-69
2021/03/03 09:43:04;;;;;;;23.85;11.27;;;10.90;99.90;;;;;;5013740;28;20084;-70
2021/03/03 09:45:55;;;;;;;22.65;10.07;;;10.60;99.90;;;;;;5021349;28;20177;-69
2021/03/03 09:48:39;;;;;;;22.63;10.23;;;10.60;99.90;;;;;;5012573;28;20434;-70
2021/03/03 09:51:23;;;;;;;23.08;9.50;;;10.60;99.90;;;;;;5017567;28;20545;-69
2021/03/03 09:54:07;;;;;;;22.13;11.13;;;10.60;99.90;;;;;;5024496;28;20043;-70
2021/03/03 09:56:51;;;;;;;17.52;10.48;;;10.60;99.90;;;;;;5020625;28;20342;-70
2021/03/03 09:59:37;;;;;;;20.80;8.35;;;10.80;99.90;;;;;;5014199;28;20099;-70
2021/03/03 10:02:28;;;;;;;24.90;10.27;;;10.90;99.90;;;;;;5028428;28;20085;-70
2021/03/03 10:05:21;;;;;;;21.23;9.88;;;11.00;99.90;;;;;;5020113;28;20072;-70
2021/03/03 10:08:07;;;;;;;16.38;9.30;;;11.00;99.90;;;;;;5035145;28;20056;-70
2021/03/03 10:10:54;;;;;;;20.25;9.32;;;11.10;99.90;;;;;;5021219;28;20053;-70
2021/03/03 10:13:41;;;;;;;20.67;10.43;;;11.20;99.90;;;;;;5013785;28;20084;-69
2021/03/03 10:16:26;;;;;;;19.60;9.32;;;11.30;99.90;;;;;;5017398;28;20084;-69
2021/03/03 10:19:10;;;;;;;20.98;9.38;;;11.40;99.90;;;;;;5009801;28;20152;-70
2021/03/03 10:21:55;;;;;;;23.70;9.38;;;11.40;99.90;;;;;;5013161;28;20075;-70
2021/03/03 10:24:39;;;;;;;18.92;7.78;;;11.40;99.90;;;;;;5010600;28;20076;-70
2021/03/03 10:27:25;;;;;;;20.55;8.80;;;11.30;99.90;;;;;;5023201;28;20048;-70
2021/03/03 10:30:23;;;;;;;16.17;7.53;;;11.30;99.90;;;;;;5009936;28;20081;-70
2021/03/03 10:33:09;;;;;;;19.60;9.73;;;11.30;99.90;;;;;;5025802;28;20049;-70
2021/03/03 10:35:55;;;;;;;19.30;7.40;;;11.40;99.90;;;;;;5022807;28;20052;-70
2021/03/03 10:38:54;;;;;;;16.35;8.35;;;11.50;99.90;;;;;;5026924;28;20123;-70
2021/03/03 10:41:38;;;;;;;18.95;6.95;;;11.50;99.90;;;;;;5023003;28;20557;-71
2021/03/03 10:44:40;;;;;;;16.35;8.10;;;11.50;99.90;;;;;;5013466;28;20080;-70
2021/03/03 10:47:49;;;;;;;20.10;8.90;;;11.50;99.90;;;;;;5016990;28;20057;-71
2021/03/03 10:50:48;;;;;;;18.20;8.52;;;11.60;99.90;;;;;;5017839;28;20049;-70
2021/03/03 10:54:02;;;;;;;22.92;9.00;;;11.70;99.90;;;;;;5009588;28;20115;-70
2021/03/03 10:56:46;;;;;;;19.02;8.75;;;11.70;99.90;;;;;;5011052;28;20418;-71
2021/03/03 10:59:31;;;;;;;21.70;9.80;;;11.80;99.90;;;;;;5011045;28;20041;-71
2021/03/03 11:02:22;;;;;;;20.95;8.82;;;12.00;99.90;;;;;;5015805;28;20076;-70
2021/03/03 11:05:21;;;;;;;23.33;9.27;;;12.20;99.90;;;;;;5019587;28;20056;-70
2021/03/03 11:08:05;;;;;;;18.05;8.43;;;12.40;99.60;;;;;;5029588;28;20569;-71
2021/03/03 11:10:51;;;;;;;16.63;8.50;;;12.60;99.70;;;;;;5021803;28;20095;-70
2021/03/03 11:13:35;;;;;;;18.92;9.02;;;12.70;99.20;;;;;;5027364;28;20217;-69
2021/03/03 11:16:21;;;;;;;24.92;9.73;;;12.90;98.50;;;;;;5028801;28;20087;-70
2021/03/03 11:19:05;;;;;;;19.38;9.05;;;12.80;98.80;;;;;;5013634;28;20048;-70
2021/03/03 11:21:51;;;;;;;18.88;9.50;;;12.90;98.50;;;;;;5019831;28;20547;-70
2021/03/03 11:24:35;;;;;;;17.48;8.18;;;13.00;97.40;;;;;;5017954;28;20556;-71
2021/03/03 11:27:19;;;;;;;19.92;8.38;;;12.80;96.30;;;;;;5019068;28;20107;-70
2021/03/03 11:30:04;;;;;;;18.65;7.80;;;12.90;95.30;;;;;;5015398;28;20052;-71
2021/03/03 11:32:50;;;;;;;19.08;9.23;;;13.00;94.80;;;;;;5021080;28;20413;-71
2021/03/03 11:35:35;;;;;;;19.50;8.73;;;13.10;95.70;;;;;;5019107;28;20505;-70
2021/03/03 11:38:19;;;;;;;21.88;8.60;;;13.20;96.30;;;;;;5016134;28;20244;-71
2021/03/03 11:41:03;;;;;;;17.30;8.60;;;13.40;94.40;;;;;;5016728;28;20069;-70
2021/03/03 11:43:47;;;;;;;15.75;8.60;;;13.50;93.90;;;;;;5019094;28;20099;-70
2021/03/03 11:46:33;;;;;;;18.33;9.00;;;13.80;93.60;;;;;;5012597;28;20041;-70
2021/03/03 11:49:17;;;;;;;20.52;7.97;;;13.80;93.60;;;;;;5013179;28;20052;-70
2021/03/03 11:52:01;;;;;;;19.23;10.02;;;13.90;92.50;;;;;;5013639;28;20084;-71
2021/03/03 11:54:45;;;;;;;16.52;8.88;;;14.00;94.90;;;;;;5014582;28;20612;-70
2021/03/03 11:57:29;;;;;;;19.33;8.90;;;13.90;92.10;;;;;;5024719;28;20080;-70
2021/03/03 12:00:14;;;;;;;18.25;7.97;;;13.80;93.00;;;;;;5017355;28;20073;-69
2021/03/03 12:02:59;;;;;;;16.00;8.50;;;13.80;92.30;;;;;;5016986;28;20607;-71
2021/03/03 12:05:43;;;;;;;17.30;8.57;;;13.70;92.40;;;;;;5014520;28;20045;-70
2021/03/03 12:08:27;;;;;;;20.08;7.80;;;13.80;93.90;;;;;;5017235;28;20048;-70
2021/03/03 12:11:11;;;;;;;17.02;8.77;;;13.80;93.00;;;;;;5017622;28;20581;-70
2021/03/03 12:13:55;;;;;;;14.52;8.27;;;14.00;94.80;;;;;;5024522;28;20469;-70
2021/03/03 12:16:40;;;;;;;15.48;8.50;;;14.10;94.30;;;;;;5021719;28;20091;-70
2021/03/03 12:19:24;;;;;;;17.70;8.98;;;14.10;93.60;;;;;;5017597;28;20048;-70
2021/03/03 12:22:08;;;;;;;15.85;8.15;;;14.10;94.40;;;;;;5011258;28;20474;-70
2021/03/03 12:24:53;;;;;;;15.50;8.43;;;14.00;93.10;;;;;;5026280;28;20041;-71
2021/03/03 12:27:37;;;;;;;18.75;8.15;;;14.00;94.10;;;;;;5025091;28;20040;-71
2021/03/03 12:30:22;;;;;;;15.65;7.70;;;14.00;94.00;;;;;;5019186;28;20091;-71
2021/03/03 12:33:06;;;;;;;18.52;8.68;;;14.20;93.60;;;;;;5030308;28;20040;-70
2021/03/03 12:35:51;;;;;;;19.77;10.15;;;14.60;92.30;;;;;;5011731;28;20048;-70
2021/03/03 12:38:35;;;;;;;18.92;8.50;;;14.80;92.80;;;;;;5015238;28;20041;-70
2021/03/03 12:41:20;;;;;;;19.27;8.80;;;14.90;86.80;;;;;;5015405;28;20513;-70
2021/03/03 12:44:04;;;;;;;23.00;9.80;;;15.10;88.90;;;;;;5022214;28;20088;-71
2021/03/03 12:46:49;;;;;;;17.33;10.27;;;15.30;90.30;;;;;;5022072;28;20045;-70
2021/03/03 12:49:34;;;;;;;28.38;10.32;;;15.60;88.80;;;;;;5015474;28;20048;-71
2021/03/03 12:52:18;;;;;;;17.98;10.07;;;15.70;82.50;;;;;;5023772;28;20122;-71
2021/03/03 12:55:03;;;;;;;22.27;9.77;;;15.70;81.70;;;;;;5020941;28;20053;-70
2021/03/03 12:57:47;;;;;;;19.27;9.43;;;16.00;85.10;;;;;;5015205;28;20037;-71
2021/03/03 13:00:31;;;;;;;18.80;8.70;;;16.40;75.70;;;;;;5012442;28;20048;-70
2021/03/03 13:03:16;;;;;;;17.33;9.85;;;16.20;77.70;;;;;;5020216;28;20068;-71
2021/03/03 13:06:00;;;;;;;19.60;9.15;;;16.20;75.10;;;;;;5011630;28;20045;-70
2021/03/03 13:08:45;;;;;;;18.25;9.75;;;16.20;74.60;;;;;;5013082;28;20053;-70
2021/03/03 13:11:29;;;;;;;19.92;10.05;;;16.20;75.00;;;;;;5015795;28;20204;-70
2021/03/03 13:14:13;;;;;;;18.23;9.50;;;16.30;78.60;;;;;;5018721;28;20103;-71
2021/03/03 13:17:01;;;;;;;15.60;8.75;;;16.60;74.50;;;;;;5013826;28;20140;-70
2021/03/03 13:19:45;;;;;;;20.05;8.73;;;16.60;71.20;;;;;;5019212;28;20052;-70
2021/03/03 13:22:29;;;;;;;17.08;9.45;;;16.60;71.60;;;;;;5014157;28;20056;-70
2021/03/03 13:25:13;;;;;;;21.92;9.95;;;16.80;69.80;;;;;;5016530;28;20053;-71
2021/03/03 13:27:57;;;;;;;26.33;10.15;;;16.80;69.30;;;;;;5015941;28;20466;-71
2021/03/03 13:30:42;;;;;;;22.48;9.98;;;16.80;68.30;;;;;;5011620;28;20076;-71
2021/03/03 13:33:26;;;;;;;22.65;10.45;;;16.70;69.50;;;;;;5025757;28;20446;-71
2021/03/03 13:36:10;;;;;;;20.60;10.73;;;16.90;69.60;;;;;;5027015;28;20517;-70
2021/03/03 13:38:54;;;;;;;19.50;9.95;;;16.70;70.00;;;;;;5015409;28;20052;-70
2021/03/03 13:41:38;;;;;;;16.85;9.52;;;16.90;69.90;;;;;;5013675;28;20132;-71
2021/03/03 13:44:22;;;;;;;20.50;10.25;;;17.10;68.50;;;;;;5019280;28;20401;-71
2021/03/03 13:47:06;;;;;;;21.45;10.10;;;17.00;68.40;;;;;;5018537;28;20049;-70
2021/03/03 13:49:52;;;;;;;28.65;10.25;;;16.70;69.70;;;;;;5011563;28;20099;-71
2021/03/03 13:52:37;;;;;;;19.98;9.27;;;16.50;70.10;;;;;;5024369;28;20040;-71
2021/03/03 13:55:21;;;;;;;23.15;10.30;;;16.20;68.90;;;;;;5021452;28;20457;-70
2021/03/03 13:58:05;;;;;;;24.52;12.45;;;16.00;71.50;;;;;;5026504;28;20108;-71
2021/03/03 14:00:50;;;;;;;18.60;10.23;;;15.80;73.10;;;;;;5023470;28;20052;-71
2021/03/03 14:03:35;;;;;;;17.80;10.45;;;15.80;75.00;;;;;;5019985;28;20168;-69
2021/03/03 14:06:19;;;;;;;18.63;9.35;;;15.80;77.20;;;;;;5021947;28;20458;-70
2021/03/03 14:09:03;;;;;;;20.67;10.07;;;15.60;75.00;;;;;;5018983;28;20091;-70
2021/03/03 14:11:48;;;;;;;19.85;10.25;;;15.50;80.50;;;;;;5012783;28;20513;-70
2021/03/03 14:14:32;;;;;;;22.35;10.85;;;15.40;81.90;;;;;;5014724;28;20060;-69